sensor_id;sensor_type;location;lat;lon;timestamp;P1;durP1;ratioP1;P2;durP2;ratioP2
19312;SDS011;9791;50.820;4.406;2022-09-01T00:00:44;7.55;;;3.15;;
19312;SDS011;9791;50.820;4.406;2022-09-01T00:03:13;10.95;;;3.60;;
19312;SDS011;9791;50.820;4.406;2022-09-01T00:05:40;6.63;;;3.42;;
19312;SDS011;9791;50.820;4.406;2022-09-01T00:08:06;13.80;;;3.13;;
19312;SDS011;9791;50.820;4.406;2022-09-01T00:10:32;8.50;;;3.15;;
19312;SDS011;9791;50.820;4.406;2022-09-01T00:12:58;7.63;;;2.90;;
19312;SDS011;9791;50.820;4.406;2022-09-01T00:15:24;7.88;;;3.03;;
19312;SDS011;9791;50.820;4.406;2022-09-01T00:17:50;9.52;;;3.60;;
19312;SDS011;9791;50.820;4.406;2022-09-01T00:20:16;6.60;;;3.25;;
19312;SDS011;9791;50.820;4.406;2022-09-01T00:22:42;9.45;;;3.15;;
19312;SDS011;9791;50.820;4.406;2022-09-01T00:25:08;10.88;;;3.90;;
19312;SDS011;9791;50.820;4.406;2022-09-01T00:27:34;13.63;;;3.65;;
19312;SDS011;9791;50.820;4.406;2022-09-01T00:30:00;5.97;;;2.70;;
19312;SDS011;9791;50.820;4.406;2022-09-01T00:32:26;7.32;;;3.55;;
19312;SDS011;9791;50.820;4.406;2022-09-01T00:34:53;8.02;;;3.90;;
19312;SDS011;9791;50.820;4.406;2022-09-01T00:37:19;9.63;;;3.50;;
19312;SDS011;9791;50.820;4.406;2022-09-01T00:39:45;7.97;;;3.08;;
19312;SDS011;9791;50.820;4.406;2022-09-01T00:42:11;7.80;;;3.05;;
19312;SDS011;9791;50.820;4.406;2022-09-01T00:44:37;9.30;;;3.10;;
19312;SDS011;9791;50.820;4.406;2022-09-01T00:47:03;6.60;;;3.13;;
19312;SDS011;9791;50.820;4.406;2022-09-01T00:49:40;8.32;;;3.10;;
19312;SDS011;9791;50.820;4.406;2022-09-01T00:52:09;7.22;;;3.38;;
19312;SDS011;9791;50.820;4.406;2022-09-01T00:54:36;7.65;;;3.30;;
19312;SDS011;9791;50.820;4.406;2022-09-01T00:57:04;7.82;;;3.13;;
19312;SDS011;9791;50.820;4.406;2022-09-01T00:59:30;9.40;;;3.60;;
19312;SDS011;9791;50.820;4.406;2022-09-01T01:01:57;8.52;;;3.65;;
19312;SDS011;9791;50.820;4.406;2022-09-01T01:04:23;8.98;;;3.47;;
19312;SDS011;9791;50.820;4.406;2022-09-01T01:06:50;5.90;;;3.00;;
19312;SDS011;9791;50.820;4.406;2022-09-01T01:09:23;10.77;;;3.55;;
19312;SDS011;9791;50.820;4.406;2022-09-01T01:11:49;7.78;;;3.67;;
19312;SDS011;9791;50.820;4.406;2022-09-01T01:14:16;8.38;;;3.50;;
19312;SDS011;9791;50.820;4.406;2022-09-01T01:16:44;9.88;;;3.78;;
19312;SDS011;9791;50.820;4.406;2022-09-01T01:19:13;9.57;;;3.47;;
19312;SDS011;9791;50.820;4.406;2022-09-01T01:22:01;7.75;;;3.55;;
19312;SDS011;9791;50.820;4.406;2022-09-01T01:24:46;8.27;;;3.83;;
19312;SDS011;9791;50.820;4.406;2022-09-01T01:27:12;10.20;;;3.97;;
19312;SDS011;9791;50.820;4.406;2022-09-01T01:29:41;9.63;;;3.85;;
19312;SDS011;9791;50.820;4.406;2022-09-01T01:32:08;9.05;;;3.60;;
19312;SDS011;9791;50.820;4.406;2022-09-01T01:34:37;12.48;;;4.40;;
19312;SDS011;9791;50.820;4.406;2022-09-01T01:37:07;9.30;;;3.42;;
19312;SDS011;9791;50.820;4.406;2022-09-01T01:39:35;10.32;;;4.00;;
19312;SDS011;9791;50.820;4.406;2022-09-01T01:42:05;8.65;;;4.30;;
19312;SDS011;9791;50.820;4.406;2022-09-01T01:44:33;11.02;;;4.80;;
19312;SDS011;9791;50.820;4.406;2022-09-01T01:47:02;8.40;;;3.92;;
19312;SDS011;9791;50.820;4.406;2022-09-01T01:49:34;11.65;;;4.38;;
19312;SDS011;9791;50.820;4.406;2022-09-01T01:52:00;11.93;;;4.05;;
19312;SDS011;9791;50.820;4.406;2022-09-01T01:54:27;12.95;;;5.05;;
19312;SDS011;9791;50.820;4.406;2022-09-01T01:56:56;11.75;;;4.50;;
19312;SDS011;9791;50.820;4.406;2022-09-01T01:59:22;8.38;;;4.30;;
19312;SDS011;9791;50.820;4.406;2022-09-01T02:01:49;9.82;;;4.63;;
19312;SDS011;9791;50.820;4.406;2022-09-01T02:04:15;10.18;;;4.60;;
19312;SDS011;9791;50.820;4.406;2022-09-01T02:06:42;10.98;;;4.60;;
19312;SDS011;9791;50.820;4.406;2022-09-01T02:09:10;9.32;;;4.97;;
19312;SDS011;9791;50.820;4.406;2022-09-01T02:11:36;8.40;;;4.97;;
19312;SDS011;9791;50.820;4.406;2022-09-01T02:14:03;10.70;;;4.90;;
19312;SDS011;9791;50.820;4.406;2022-09-01T02:16:30;9.52;;;4.53;;
19312;SDS011;9791;50.820;4.406;2022-09-01T02:18:57;10.27;;;4.88;;
19312;SDS011;9791;50.820;4.406;2022-09-01T02:21:24;14.23;;;5.05;;
19312;SDS011;9791;50.820;4.406;2022-09-01T02:23:55;11.10;;;4.93;;
19312;SDS011;9791;50.820;4.406;2022-09-01T02:29:21;16.00;;;5.75;;
19312;SDS011;9791;50.820;4.406;2022-09-01T02:31:48;15.73;;;5.90;;
19312;SDS011;9791;50.820;4.406;2022-09-01T02:34:15;10.57;;;5.53;;
19312;SDS011;9791;50.820;4.406;2022-09-01T02:36:47;13.60;;;5.32;;
19312;SDS011;9791;50.820;4.406;2022-09-01T02:39:14;11.52;;;5.15;;
19312;SDS011;9791;50.820;4.406;2022-09-01T02:41:41;11.02;;;5.68;;
19312;SDS011;9791;50.820;4.406;2022-09-01T02:44:07;12.45;;;6.07;;
19312;SDS011;9791;50.820;4.406;2022-09-01T02:46:39;12.05;;;5.43;;
19312;SDS011;9791;50.820;4.406;2022-09-01T02:49:09;9.73;;;4.57;;
19312;SDS011;9791;50.820;4.406;2022-09-01T02:51:39;11.27;;;4.95;;
19312;SDS011;9791;50.820;4.406;2022-09-01T02:54:06;10.13;;;5.07;;
19312;SDS011;9791;50.820;4.406;2022-09-01T02:56:32;16.80;;;5.22;;
19312;SDS011;9791;50.820;4.406;2022-09-01T02:58:58;12.95;;;5.85;;
19312;SDS011;9791;50.820;4.406;2022-09-01T03:01:29;10.48;;;4.93;;
19312;SDS011;9791;50.820;4.406;2022-09-01T03:04:00;12.52;;;4.97;;
19312;SDS011;9791;50.820;4.406;2022-09-01T03:06:27;10.02;;;5.10;;
19312;SDS011;9791;50.820;4.406;2022-09-01T03:08:54;12.73;;;5.40;;
19312;SDS011;9791;50.820;4.406;2022-09-01T03:11:23;17.67;;;5.50;;
19312;SDS011;9791;50.820;4.406;2022-09-01T03:13:49;11.63;;;5.05;;
19312;SDS011;9791;50.820;4.406;2022-09-01T03:16:15;13.20;;;5.75;;
19312;SDS011;9791;50.820;4.406;2022-09-01T03:18:41;13.75;;;5.80;;
19312;SDS011;9791;50.820;4.406;2022-09-01T03:21:07;13.32;;;5.10;;
19312;SDS011;9791;50.820;4.406;2022-09-01T03:23:33;8.27;;;4.90;;
19312;SDS011;9791;50.820;4.406;2022-09-01T03:26:00;16.35;;;5.50;;
19312;SDS011;9791;50.820;4.406;2022-09-01T03:28:26;9.38;;;5.35;;
19312;SDS011;9791;50.820;4.406;2022-09-01T03:30:54;11.00;;;5.32;;
19312;SDS011;9791;50.820;4.406;2022-09-01T03:33:21;9.00;;;4.85;;
19312;SDS011;9791;50.820;4.406;2022-09-01T03:35:47;11.82;;;5.10;;
19312;SDS011;9791;50.820;4.406;2022-09-01T03:38:14;14.27;;;5.90;;
19312;SDS011;9791;50.820;4.406;2022-09-01T03:40:58;14.18;;;4.93;;
19312;SDS011;9791;50.820;4.406;2022-09-01T03:43:26;10.77;;;5.70;;
19312;SDS011;9791;50.820;4.406;2022-09-01T03:45:56;13.82;;;5.30;;
19312;SDS011;9791;50.820;4.406;2022-09-01T03:48:25;9.55;;;5.28;;
19312;SDS011;9791;50.820;4.406;2022-09-01T03:50:53;16.75;;;6.22;;
19312;SDS011;9791;50.820;4.406;2022-09-01T03:53:20;11.20;;;4.88;;
19312;SDS011;9791;50.820;4.406;2022-09-01T03:55:47;9.98;;;5.00;;
19312;SDS011;9791;50.820;4.406;2022-09-01T03:58:14;10.77;;;5.30;;
19312;SDS011;9791;50.820;4.406;2022-09-01T04:00:43;12.77;;;6.03;;
19312;SDS011;9791;50.820;4.406;2022-09-01T04:03:10;13.15;;;5.60;;
19312;SDS011;9791;50.820;4.406;2022-09-01T04:05:37;9.55;;;5.22;;
19312;SDS011;9791;50.820;4.406;2022-09-01T04:08:06;10.75;;;5.70;;
19312;SDS011;9791;50.820;4.406;2022-09-01T04:10:34;9.90;;;5.35;;
19312;SDS011;9791;50.820;4.406;2022-09-01T04:13:01;10.70;;;5.47;;
19312;SDS011;9791;50.820;4.406;2022-09-01T04:15:29;9.90;;;5.65;;
19312;SDS011;9791;50.820;4.406;2022-09-01T04:17:56;11.80;;;4.88;;
19312;SDS011;9791;50.820;4.406;2022-09-01T04:20:33;13.30;;;5.70;;
19312;SDS011;9791;50.820;4.406;2022-09-01T04:23:12;9.90;;;5.35;;
19312;SDS011;9791;50.820;4.406;2022-09-01T04:25:41;17.15;;;5.50;;
19312;SDS011;9791;50.820;4.406;2022-09-01T04:28:07;9.77;;;4.82;;
19312;SDS011;9791;50.820;4.406;2022-09-01T04:30:46;10.13;;;5.60;;
19312;SDS011;9791;50.820;4.406;2022-09-01T04:33:13;13.48;;;5.72;;
19312;SDS011;9791;50.820;4.406;2022-09-01T04:35:41;11.48;;;5.45;;
19312;SDS011;9791;50.820;4.406;2022-09-01T04:38:07;14.23;;;5.68;;
19312;SDS011;9791;50.820;4.406;2022-09-01T04:40:40;12.80;;;5.15;;
19312;SDS011;9791;50.820;4.406;2022-09-01T04:43:06;10.48;;;4.65;;
19312;SDS011;9791;50.820;4.406;2022-09-01T04:45:36;9.80;;;5.15;;
19312;SDS011;9791;50.820;4.406;2022-09-01T04:48:03;15.23;;;4.97;;
19312;SDS011;9791;50.820;4.406;2022-09-01T04:50:29;12.90;;;5.13;;
19312;SDS011;9791;50.820;4.406;2022-09-01T04:52:57;13.23;;;5.95;;
19312;SDS011;9791;50.820;4.406;2022-09-01T04:55:25;15.20;;;5.45;;
19312;SDS011;9791;50.820;4.406;2022-09-01T04:57:54;10.07;;;5.10;;
19312;SDS011;9791;50.820;4.406;2022-09-01T05:00:21;15.57;;;6.38;;
19312;SDS011;9791;50.820;4.406;2022-09-01T05:02:51;9.80;;;5.07;;
19312;SDS011;9791;50.820;4.406;2022-09-01T05:05:19;11.85;;;6.05;;
19312;SDS011;9791;50.820;4.406;2022-09-01T05:07:45;13.32;;;5.43;;
19312;SDS011;9791;50.820;4.406;2022-09-01T05:10:14;13.13;;;5.63;;
19312;SDS011;9791;50.820;4.406;2022-09-01T05:12:42;13.43;;;5.38;;
19312;SDS011;9791;50.820;4.406;2022-09-01T05:15:12;12.20;;;5.43;;
19312;SDS011;9791;50.820;4.406;2022-09-01T05:17:38;15.32;;;5.68;;
19312;SDS011;9791;50.820;4.406;2022-09-01T05:20:05;13.20;;;6.13;;
19312;SDS011;9791;50.820;4.406;2022-09-01T05:22:31;13.88;;;5.70;;
19312;SDS011;9791;50.820;4.406;2022-09-01T05:24:58;14.60;;;4.97;;
19312;SDS011;9791;50.820;4.406;2022-09-01T05:27:28;11.25;;;6.25;;
19312;SDS011;9791;50.820;4.406;2022-09-01T05:29:55;10.98;;;5.50;;
19312;SDS011;9791;50.820;4.406;2022-09-01T05:32:24;13.73;;;5.13;;
19312;SDS011;9791;50.820;4.406;2022-09-01T05:34:51;13.30;;;5.28;;
19312;SDS011;9791;50.820;4.406;2022-09-01T05:37:17;14.35;;;6.05;;
19312;SDS011;9791;50.820;4.406;2022-09-01T05:39:44;14.50;;;6.03;;
19312;SDS011;9791;50.820;4.406;2022-09-01T05:42:10;16.77;;;5.63;;
19312;SDS011;9791;50.820;4.406;2022-09-01T05:44:38;12.00;;;5.25;;
19312;SDS011;9791;50.820;4.406;2022-09-01T05:47:08;15.88;;;5.85;;
19312;SDS011;9791;50.820;4.406;2022-09-01T05:49:36;14.00;;;5.93;;
19312;SDS011;9791;50.820;4.406;2022-09-01T05:52:03;14.63;;;5.70;;
19312;SDS011;9791;50.820;4.406;2022-09-01T05:54:32;27.13;;;6.07;;
19312;SDS011;9791;50.820;4.406;2022-09-01T05:56:59;10.80;;;5.53;;
19312;SDS011;9791;50.820;4.406;2022-09-01T05:59:27;12.00;;;5.72;;
19312;SDS011;9791;50.820;4.406;2022-09-01T06:01:55;14.13;;;5.65;;
19312;SDS011;9791;50.820;4.406;2022-09-01T06:04:21;11.27;;;5.63;;
19312;SDS011;9791;50.820;4.406;2022-09-01T06:06:49;14.65;;;5.20;;
19312;SDS011;9791;50.820;4.406;2022-09-01T06:09:17;11.77;;;5.35;;
19312;SDS011;9791;50.820;4.406;2022-09-01T06:11:45;15.77;;;5.32;;
19312;SDS011;9791;50.820;4.406;2022-09-01T06:14:12;17.55;;;5.38;;
19312;SDS011;9791;50.820;4.406;2022-09-01T06:16:39;10.30;;;4.68;;
19312;SDS011;9791;50.820;4.406;2022-09-01T06:19:06;10.13;;;4.38;;
19312;SDS011;9791;50.820;4.406;2022-09-01T06:21:32;13.93;;;5.18;;
19312;SDS011;9791;50.820;4.406;2022-09-01T06:23:58;9.57;;;4.40;;
19312;SDS011;9791;50.820;4.406;2022-09-01T06:26:27;10.52;;;5.50;;
19312;SDS011;9791;50.820;4.406;2022-09-01T06:28:57;9.68;;;4.80;;
19312;SDS011;9791;50.820;4.406;2022-09-01T06:31:26;8.80;;;4.30;;
19312;SDS011;9791;50.820;4.406;2022-09-01T06:33:54;10.52;;;5.03;;
19312;SDS011;9791;50.820;4.406;2022-09-01T06:36:21;9.70;;;4.15;;
19312;SDS011;9791;50.820;4.406;2022-09-01T06:38:50;8.30;;;3.75;;
19312;SDS011;9791;50.820;4.406;2022-09-01T06:41:17;9.20;;;3.80;;
19312;SDS011;9791;50.820;4.406;2022-09-01T06:43:44;12.98;;;3.45;;
19312;SDS011;9791;50.820;4.406;2022-09-01T06:46:11;9.32;;;3.85;;
19312;SDS011;9791;50.820;4.406;2022-09-01T06:48:37;9.07;;;3.65;;
19312;SDS011;9791;50.820;4.406;2022-09-01T06:51:11;7.22;;;3.50;;
19312;SDS011;9791;50.820;4.406;2022-09-01T06:53:38;10.55;;;3.20;;
19312;SDS011;9791;50.820;4.406;2022-09-01T06:56:04;9.02;;;3.00;;
19312;SDS011;9791;50.820;4.406;2022-09-01T06:58:30;7.00;;;2.78;;
19312;SDS011;9791;50.820;4.406;2022-09-01T07:00:57;8.73;;;3.50;;
19312;SDS011;9791;50.820;4.406;2022-09-01T07:03:23;9.65;;;2.90;;
19312;SDS011;9791;50.820;4.406;2022-09-01T07:05:50;8.45;;;3.20;;
19312;SDS011;9791;50.820;4.406;2022-09-01T07:08:16;8.60;;;3.00;;
19312;SDS011;9791;50.820;4.406;2022-09-01T07:10:46;6.57;;;3.10;;
19312;SDS011;9791;50.820;4.406;2022-09-01T07:13:15;8.80;;;3.22;;
19312;SDS011;9791;50.820;4.406;2022-09-01T07:15:46;9.25;;;3.42;;
19312;SDS011;9791;50.820;4.406;2022-09-01T07:18:14;10.43;;;2.70;;
19312;SDS011;9791;50.820;4.406;2022-09-01T07:20:41;7.13;;;2.63;;
19312;SDS011;9791;50.820;4.406;2022-09-01T07:23:08;8.25;;;2.90;;
19312;SDS011;9791;50.820;4.406;2022-09-01T07:25:38;9.30;;;2.80;;
19312;SDS011;9791;50.820;4.406;2022-09-01T07:28:06;7.35;;;2.85;;
19312;SDS011;9791;50.820;4.406;2022-09-01T07:30:32;6.72;;;2.97;;
19312;SDS011;9791;50.820;4.406;2022-09-01T07:32:59;4.05;;;2.20;;
19312;SDS011;9791;50.820;4.406;2022-09-01T07:35:25;7.28;;;2.30;;
19312;SDS011;9791;50.820;4.406;2022-09-01T07:37:52;8.02;;;2.63;;
19312;SDS011;9791;50.820;4.406;2022-09-01T07:40:19;7.82;;;2.45;;
19312;SDS011;9791;50.820;4.406;2022-09-01T07:42:47;5.00;;;1.98;;
19312;SDS011;9791;50.820;4.406;2022-09-01T07:45:14;6.55;;;2.22;;
19312;SDS011;9791;50.820;4.406;2022-09-01T07:47:41;6.70;;;2.35;;
19312;SDS011;9791;50.820;4.406;2022-09-01T07:50:08;8.90;;;2.22;;
19312;SDS011;9791;50.820;4.406;2022-09-01T07:52:37;13.70;;;2.38;;
19312;SDS011;9791;50.820;4.406;2022-09-01T07:55:10;8.43;;;2.25;;
19312;SDS011;9791;50.820;4.406;2022-09-01T07:57:37;6.07;;;2.17;;
19312;SDS011;9791;50.820;4.406;2022-09-01T08:00:06;5.05;;;2.60;;
19312;SDS011;9791;50.820;4.406;2022-09-01T08:02:32;6.22;;;2.10;;
19312;SDS011;9791;50.820;4.406;2022-09-01T08:04:59;5.72;;;2.35;;
19312;SDS011;9791;50.820;4.406;2022-09-01T08:07:25;7.50;;;2.78;;
19312;SDS011;9791;50.820;4.406;2022-09-01T08:09:51;6.47;;;2.30;;
19312;SDS011;9791;50.820;4.406;2022-09-01T08:12:17;6.47;;;2.22;;
19312;SDS011;9791;50.820;4.406;2022-09-01T08:14:44;7.90;;;2.22;;
19312;SDS011;9791;50.820;4.406;2022-09-01T08:17:10;6.45;;;2.50;;
19312;SDS011;9791;50.820;4.406;2022-09-01T08:19:36;8.15;;;1.90;;
19312;SDS011;9791;50.820;4.406;2022-09-01T08:22:02;6.07;;;2.33;;
19312;SDS011;9791;50.820;4.406;2022-09-01T08:24:29;4.35;;;1.88;;
19312;SDS011;9791;50.820;4.406;2022-09-01T08:26:55;7.80;;;1.70;;
19312;SDS011;9791;50.820;4.406;2022-09-01T08:29:21;10.40;;;2.08;;
19312;SDS011;9791;50.820;4.406;2022-09-01T08:31:47;5.25;;;1.73;;
19312;SDS011;9791;50.820;4.406;2022-09-01T08:34:13;10.00;;;1.92;;
19312;SDS011;9791;50.820;4.406;2022-09-01T08:36:41;6.20;;;2.30;;
19312;SDS011;9791;50.820;4.406;2022-09-01T08:39:07;7.47;;;1.92;;
19312;SDS011;9791;50.820;4.406;2022-09-01T08:41:43;10.10;;;1.70;;
19312;SDS011;9791;50.820;4.406;2022-09-01T08:46:58;6.05;;;1.85;;
19312;SDS011;9791;50.820;4.406;2022-09-01T08:49:27;6.90;;;2.20;;
19312;SDS011;9791;50.820;4.406;2022-09-01T08:54:43;4.15;;;1.55;;
19312;SDS011;9791;50.820;4.406;2022-09-01T08:57:17;4.03;;;1.98;;
19312;SDS011;9791;50.820;4.406;2022-09-01T08:59:43;4.63;;;1.50;;
19312;SDS011;9791;50.820;4.406;2022-09-01T09:04:51;3.47;;;1.70;;
19312;SDS011;9791;50.820;4.406;2022-09-01T09:07:24;8.98;;;1.83;;
19312;SDS011;9791;50.820;4.406;2022-09-01T09:09:55;4.47;;;1.50;;
19312;SDS011;9791;50.820;4.406;2022-09-01T09:12:29;4.50;;;1.80;;
19312;SDS011;9791;50.820;4.406;2022-09-01T09:15:02;6.22;;;1.80;;
19312;SDS011;9791;50.820;4.406;2022-09-01T09:17:35;5.57;;;1.60;;
19312;SDS011;9791;50.820;4.406;2022-09-01T09:20:04;4.38;;;1.60;;
19312;SDS011;9791;50.820;4.406;2022-09-01T09:22:30;4.45;;;1.70;;
19312;SDS011;9791;50.820;4.406;2022-09-01T09:25:00;5.40;;;1.58;;
19312;SDS011;9791;50.820;4.406;2022-09-01T09:27:29;4.57;;;1.40;;
19312;SDS011;9791;50.820;4.406;2022-09-01T09:30:11;3.58;;;1.60;;
19312;SDS011;9791;50.820;4.406;2022-09-01T09:37:55;5.63;;;1.75;;
19312;SDS011;9791;50.820;4.406;2022-09-01T09:43:31;5.75;;;1.48;;
19312;SDS011;9791;50.820;4.406;2022-09-01T09:48:42;4.68;;;1.50;;
19312;SDS011;9791;50.820;4.406;2022-09-01T09:51:15;5.15;;;1.63;;
19312;SDS011;9791;50.820;4.406;2022-09-01T09:53:42;6.20;;;1.45;;
19312;SDS011;9791;50.820;4.406;2022-09-01T09:56:16;4.32;;;1.45;;
19312;SDS011;9791;50.820;4.406;2022-09-01T09:58:43;6.47;;;1.40;;
19312;SDS011;9791;50.820;4.406;2022-09-01T10:01:11;3.90;;;1.30;;
19312;SDS011;9791;50.820;4.406;2022-09-01T10:03:46;3.40;;;1.40;;
19312;SDS011;9791;50.820;4.406;2022-09-01T10:06:31;3.72;;;1.20;;
19312;SDS011;9791;50.820;4.406;2022-09-01T10:08:58;3.83;;;1.17;;
19312;SDS011;9791;50.820;4.406;2022-09-01T10:11:43;4.20;;;1.17;;
19312;SDS011;9791;50.820;4.406;2022-09-01T10:14:19;3.25;;;1.30;;
19312;SDS011;9791;50.820;4.406;2022-09-01T10:16:47;5.30;;;1.30;;
19312;SDS011;9791;50.820;4.406;2022-09-01T10:19:15;4.72;;;1.30;;
19312;SDS011;9791;50.820;4.406;2022-09-01T10:21:41;6.30;;;1.27;;
19312;SDS011;9791;50.820;4.406;2022-09-01T10:24:19;2.33;;;1.10;;
19312;SDS011;9791;50.820;4.406;2022-09-01T10:26:50;3.47;;;1.17;;
19312;SDS011;9791;50.820;4.406;2022-09-01T10:31:43;7.15;;;1.10;;
19312;SDS011;9791;50.820;4.406;2022-09-01T10:34:18;12.02;;;1.38;;
19312;SDS011;9791;50.820;4.406;2022-09-01T10:36:46;5.32;;;1.20;;
19312;SDS011;9791;50.820;4.406;2022-09-01T10:39:14;4.00;;;1.10;;
19312;SDS011;9791;50.820;4.406;2022-09-01T10:41:45;4.88;;;1.08;;
19312;SDS011;9791;50.820;4.406;2022-09-01T10:44:19;4.95;;;1.15;;
19312;SDS011;9791;50.820;4.406;2022-09-01T10:46:45;3.08;;;1.30;;
19312;SDS011;9791;50.820;4.406;2022-09-01T10:49:17;2.67;;;1.10;;
19312;SDS011;9791;50.820;4.406;2022-09-01T10:51:44;3.40;;;1.27;;
19312;SDS011;9791;50.820;4.406;2022-09-01T10:54:47;6.97;;;1.40;;
19312;SDS011;9791;50.820;4.406;2022-09-01T10:56:56;5.10;;;1.50;;
19312;SDS011;9791;50.820;4.406;2022-09-01T10:59:26;4.53;;;1.30;;
19312;SDS011;9791;50.820;4.406;2022-09-01T11:04:20;4.88;;;1.60;;
19312;SDS011;9791;50.820;4.406;2022-09-01T11:09:24;3.33;;;1.40;;
19312;SDS011;9791;50.820;4.406;2022-09-01T11:14:45;6.28;;;1.30;;
19312;SDS011;9791;50.820;4.406;2022-09-01T11:22:08;2.40;;;0.98;;
19312;SDS011;9791;50.820;4.406;2022-09-01T11:27:08;2.80;;;1.30;;
19312;SDS011;9791;50.820;4.406;2022-09-01T11:29:54;3.50;;;1.20;;
19312;SDS011;9791;50.820;4.406;2022-09-01T11:32:21;4.88;;;1.25;;
19312;SDS011;9791;50.820;4.406;2022-09-01T11:34:49;5.95;;;1.25;;
19312;SDS011;9791;50.820;4.406;2022-09-01T11:37:16;10.07;;;1.27;;
19312;SDS011;9791;50.820;4.406;2022-09-01T11:39:48;8.10;;;1.13;;
19312;SDS011;9791;50.820;4.406;2022-09-01T11:42:18;3.38;;;1.35;;
19312;SDS011;9791;50.820;4.406;2022-09-01T11:44:47;2.70;;;1.20;;
19312;SDS011;9791;50.820;4.406;2022-09-01T11:47:15;3.55;;;1.15;;
19312;SDS011;9791;50.820;4.406;2022-09-01T11:49:50;4.38;;;1.08;;
19312;SDS011;9791;50.820;4.406;2022-09-01T11:52:17;2.15;;;1.05;;
19312;SDS011;9791;50.820;4.406;2022-09-01T11:54:44;3.30;;;1.30;;
19312;SDS011;9791;50.820;4.406;2022-09-01T12:00:06;3.22;;;1.20;;
19312;SDS011;9791;50.820;4.406;2022-09-01T12:02:33;6.07;;;1.25;;
19312;SDS011;9791;50.820;4.406;2022-09-01T12:05:00;3.40;;;1.10;;
19312;SDS011;9791;50.820;4.406;2022-09-01T12:07:33;2.80;;;1.10;;
19312;SDS011;9791;50.820;4.406;2022-09-01T12:10:03;2.60;;;1.15;;
19312;SDS011;9791;50.820;4.406;2022-09-01T12:12:38;2.63;;;1.17;;
19312;SDS011;9791;50.820;4.406;2022-09-01T12:15:07;3.63;;;1.30;;
19312;SDS011;9791;50.820;4.406;2022-09-01T12:17:34;5.68;;;1.08;;
19312;SDS011;9791;50.820;4.406;2022-09-01T12:20:43;7.80;;;1.98;;
19312;SDS011;9791;50.820;4.406;2022-09-01T12:22:50;4.00;;;1.13;;
19312;SDS011;9791;50.820;4.406;2022-09-01T12:25:37;4.93;;;1.73;;
19312;SDS011;9791;50.820;4.406;2022-09-01T12:28:02;5.10;;;1.42;;
19312;SDS011;9791;50.820;4.406;2022-09-01T12:30:32;3.35;;;1.30;;
19312;SDS011;9791;50.820;4.406;2022-09-01T12:32:59;3.08;;;1.42;;
19312;SDS011;9791;50.820;4.406;2022-09-01T12:35:26;3.92;;;1.50;;
19312;SDS011;9791;50.820;4.406;2022-09-01T12:38:14;5.55;;;1.50;;
19312;SDS011;9791;50.820;4.406;2022-09-01T12:40:38;4.70;;;1.48;;
19312;SDS011;9791;50.820;4.406;2022-09-01T12:43:04;3.40;;;1.50;;
19312;SDS011;9791;50.820;4.406;2022-09-01T12:48:05;5.70;;;1.58;;
19312;SDS011;9791;50.820;4.406;2022-09-01T12:50:33;5.82;;;1.45;;
19312;SDS011;9791;50.820;4.406;2022-09-01T12:53:00;3.80;;;1.48;;
19312;SDS011;9791;50.820;4.406;2022-09-01T12:55:28;3.72;;;1.40;;
19312;SDS011;9791;50.820;4.406;2022-09-01T12:57:55;7.32;;;1.80;;
19312;SDS011;9791;50.820;4.406;2022-09-01T13:00:26;5.82;;;1.23;;
19312;SDS011;9791;50.820;4.406;2022-09-01T13:05:32;3.70;;;1.60;;
19312;SDS011;9791;50.820;4.406;2022-09-01T13:08:00;6.15;;;1.42;;
19312;SDS011;9791;50.820;4.406;2022-09-01T13:10:27;5.22;;;1.65;;
19312;SDS011;9791;50.820;4.406;2022-09-01T13:12:55;3.88;;;1.52;;
19312;SDS011;9791;50.820;4.406;2022-09-01T13:15:25;5.30;;;1.75;;
19312;SDS011;9791;50.820;4.406;2022-09-01T13:17:52;4.65;;;1.83;;
19312;SDS011;9791;50.820;4.406;2022-09-01T13:20:18;5.80;;;1.55;;
19312;SDS011;9791;50.820;4.406;2022-09-01T13:22:44;2.85;;;1.30;;
19312;SDS011;9791;50.820;4.406;2022-09-01T13:25:11;5.70;;;1.55;;
19312;SDS011;9791;50.820;4.406;2022-09-01T13:27:38;3.78;;;1.63;;
19312;SDS011;9791;50.820;4.406;2022-09-01T13:30:08;4.57;;;1.25;;
19312;SDS011;9791;50.820;4.406;2022-09-01T13:32:34;3.50;;;1.33;;
19312;SDS011;9791;50.820;4.406;2022-09-01T13:35:00;3.13;;;1.40;;
19312;SDS011;9791;50.820;4.406;2022-09-01T13:37:26;6.00;;;2.08;;
19312;SDS011;9791;50.820;4.406;2022-09-01T13:39:52;5.80;;;1.58;;
19312;SDS011;9791;50.820;4.406;2022-09-01T13:42:18;4.05;;;1.30;;
19312;SDS011;9791;50.820;4.406;2022-09-01T13:44:46;2.75;;;1.42;;
19312;SDS011;9791;50.820;4.406;2022-09-01T13:47:12;6.03;;;1.58;;
19312;SDS011;9791;50.820;4.406;2022-09-01T13:49:38;4.43;;;1.50;;
19312;SDS011;9791;50.820;4.406;2022-09-01T13:52:05;2.80;;;1.40;;
19312;SDS011;9791;50.820;4.406;2022-09-01T13:54:31;5.03;;;1.30;;
19312;SDS011;9791;50.820;4.406;2022-09-01T13:56:57;5.07;;;1.40;;
19312;SDS011;9791;50.820;4.406;2022-09-01T13:59:23;6.93;;;1.58;;
19312;SDS011;9791;50.820;4.406;2022-09-01T14:01:49;5.75;;;1.55;;
19312;SDS011;9791;50.820;4.406;2022-09-01T14:04:15;3.25;;;1.33;;
19312;SDS011;9791;50.820;4.406;2022-09-01T14:06:42;5.75;;;1.48;;
19312;SDS011;9791;50.820;4.406;2022-09-01T14:09:09;5.03;;;1.30;;
19312;SDS011;9791;50.820;4.406;2022-09-01T14:11:36;3.50;;;1.45;;
19312;SDS011;9791;50.820;4.406;2022-09-01T14:14:03;5.30;;;1.50;;
19312;SDS011;9791;50.820;4.406;2022-09-01T14:16:29;6.47;;;1.60;;
19312;SDS011;9791;50.820;4.406;2022-09-01T14:18:55;3.58;;;1.40;;
19312;SDS011;9791;50.820;4.406;2022-09-01T14:21:23;3.17;;;1.30;;
19312;SDS011;9791;50.820;4.406;2022-09-01T14:23:49;5.18;;;1.70;;
19312;SDS011;9791;50.820;4.406;2022-09-01T14:26:15;2.88;;;1.23;;
19312;SDS011;9791;50.820;4.406;2022-09-01T14:28:42;5.07;;;1.67;;
19312;SDS011;9791;50.820;4.406;2022-09-01T14:31:10;4.70;;;1.75;;
19312;SDS011;9791;50.820;4.406;2022-09-01T14:33:37;3.67;;;1.50;;
19312;SDS011;9791;50.820;4.406;2022-09-01T14:36:03;4.28;;;1.40;;
19312;SDS011;9791;50.820;4.406;2022-09-01T14:38:29;3.30;;;1.40;;
19312;SDS011;9791;50.820;4.406;2022-09-01T14:40:55;3.38;;;1.27;;
19312;SDS011;9791;50.820;4.406;2022-09-01T14:43:21;5.43;;;1.50;;
19312;SDS011;9791;50.820;4.406;2022-09-01T14:45:48;5.25;;;1.40;;
19312;SDS011;9791;50.820;4.406;2022-09-01T14:48:16;4.57;;;1.42;;
19312;SDS011;9791;50.820;4.406;2022-09-01T14:50:42;3.50;;;1.38;;
19312;SDS011;9791;50.820;4.406;2022-09-01T14:53:09;2.58;;;1.27;;
19312;SDS011;9791;50.820;4.406;2022-09-01T14:55:35;3.60;;;1.60;;
19312;SDS011;9791;50.820;4.406;2022-09-01T14:58:01;7.65;;;1.45;;
19312;SDS011;9791;50.820;4.406;2022-09-01T15:00:27;5.78;;;1.30;;
19312;SDS011;9791;50.820;4.406;2022-09-01T15:02:54;5.25;;;1.40;;
19312;SDS011;9791;50.820;4.406;2022-09-01T15:05:20;4.10;;;1.40;;
19312;SDS011;9791;50.820;4.406;2022-09-01T15:07:47;4.57;;;1.17;;
19312;SDS011;9791;50.820;4.406;2022-09-01T15:10:14;5.25;;;1.38;;
19312;SDS011;9791;50.820;4.406;2022-09-01T15:12:40;4.95;;;1.35;;
19312;SDS011;9791;50.820;4.406;2022-09-01T15:15:07;4.03;;;1.58;;
19312;SDS011;9791;50.820;4.406;2022-09-01T15:17:33;5.15;;;1.63;;
19312;SDS011;9791;50.820;4.406;2022-09-01T15:20:00;3.17;;;1.30;;
19312;SDS011;9791;50.820;4.406;2022-09-01T15:22:47;5.55;;;1.25;;
19312;SDS011;9791;50.820;4.406;2022-09-01T15:25:13;8.18;;;1.52;;
19312;SDS011;9791;50.820;4.406;2022-09-01T15:27:39;4.97;;;1.30;;
19312;SDS011;9791;50.820;4.406;2022-09-01T15:30:06;3.20;;;1.20;;
19312;SDS011;9791;50.820;4.406;2022-09-01T15:32:39;4.25;;;1.33;;
19312;SDS011;9791;50.820;4.406;2022-09-01T15:35:05;5.72;;;1.30;;
19312;SDS011;9791;50.820;4.406;2022-09-01T15:37:31;7.22;;;1.33;;
19312;SDS011;9791;50.820;4.406;2022-09-01T15:39:57;3.92;;;1.20;;
19312;SDS011;9791;50.820;4.406;2022-09-01T15:42:23;3.25;;;1.20;;
19312;SDS011;9791;50.820;4.406;2022-09-01T15:44:49;3.25;;;0.98;;
19312;SDS011;9791;50.820;4.406;2022-09-01T15:47:15;3.38;;;1.10;;
19312;SDS011;9791;50.820;4.406;2022-09-01T15:49:41;5.50;;;1.30;;
19312;SDS011;9791;50.820;4.406;2022-09-01T15:52:07;2.75;;;1.00;;